createdAt,value
2023-05-19T00:00:59.073Z,9.41
2023-05-19T00:03:27.001Z,9.27
2023-05-19T00:05:54.360Z,9.36
2023-05-19T00:08:23.849Z,9.29
2023-05-19T00:10:50.676Z,9.30
2023-05-19T00:13:17.566Z,9.37
2023-05-19T00:15:44.497Z,9.37
2023-05-19T00:18:14.097Z,9.28
2023-05-19T00:20:41.363Z,9.28
2023-05-19T00:23:08.411Z,9.42
2023-05-19T00:25:34.964Z,9.29
2023-05-19T00:28:02.513Z,9.25
2023-05-19T00:30:30.197Z,9.19
2023-05-19T00:32:57.172Z,9.13
2023-05-19T00:35:24.613Z,9.23
2023-05-19T00:37:51.174Z,9.11
2023-05-19T00:40:18.692Z,9.23
2023-05-19T00:42:45.590Z,9.17
2023-05-19T00:45:12.201Z,9.07
2023-05-19T00:47:39.662Z,9.10
2023-05-19T00:50:06.909Z,9.09
2023-05-19T00:52:33.742Z,9.06
2023-05-19T00:55:00.785Z,8.96
2023-05-19T00:57:28.174Z,8.94
2023-05-19T00:59:55.045Z,8.91
2023-05-19T01:02:21.943Z,8.80
2023-05-19T01:04:50.547Z,8.76
2023-05-19T01:07:18.710Z,8.81
2023-05-19T01:09:46.984Z,8.78
2023-05-19T01:12:13.628Z,8.79
2023-05-19T01:14:40.738Z,8.70
2023-05-19T01:17:27.613Z,8.65
2023-05-19T01:20:10.900Z,8.66
2023-05-19T01:23:16.779Z,8.63
2023-05-19T01:25:58.310Z,8.65
2023-05-19T01:28:50.935Z,8.58
2023-05-19T01:31:23.917Z,8.56
2023-05-19T01:33:53.255Z,8.49
2023-05-19T01:36:22.233Z,8.52
2023-05-19T01:38:51.765Z,8.45
2023-05-19T01:41:21.902Z,8.53
2023-05-19T01:43:49.559Z,8.55
2023-05-19T01:46:17.506Z,8.56
2023-05-19T01:48:45.715Z,8.51
2023-05-19T01:51:13.501Z,8.53
2023-05-19T01:53:42.572Z,8.48
2023-05-19T01:56:09.249Z,8.32
2023-05-19T01:58:46.364Z,8.34
2023-05-19T02:01:39.579Z,8.38
2023-05-19T02:04:10.074Z,8.39
2023-05-19T02:07:05.445Z,8.38
2023-05-19T02:09:44.189Z,8.34
2023-05-19T02:12:23.983Z,8.32
2023-05-19T02:15:05.235Z,8.24
2023-05-19T02:17:36.380Z,8.37
2023-05-19T02:20:05.102Z,8.27
2023-05-19T02:22:31.833Z,8.28
2023-05-19T02:24:58.432Z,8.28
2023-05-19T02:27:26.212Z,8.23
2023-05-19T02:29:52.900Z,8.25
2023-05-19T02:32:20.488Z,8.24
2023-05-19T02:34:47.029Z,8.19
2023-05-19T02:37:16.933Z,8.21
2023-05-19T02:39:44.321Z,8.26
2023-05-19T02:42:12.081Z,8.13
2023-05-19T02:44:38.654Z,8.16
2023-05-19T02:47:05.302Z,8.13
2023-05-19T02:49:35.783Z,8.16
2023-05-19T02:52:03.327Z,8.15
2023-05-19T02:54:34.421Z,8.11
2023-05-19T02:57:01.959Z,8.17
2023-05-19T02:59:28.908Z,8.18
2023-05-19T03:01:58.010Z,8.17
2023-05-19T03:04:24.648Z,8.20
2023-05-19T03:06:51.309Z,8.13
2023-05-19T03:09:17.906Z,8.21
2023-05-19T03:11:44.459Z,8.20
2023-05-19T03:14:12.045Z,8.21
2023-05-19T03:16:41.216Z,8.21
2023-05-19T03:19:08.553Z,8.21
2023-05-19T03:21:35.602Z,8.15
2023-05-19T03:24:02.308Z,8.16
2023-05-19T03:26:29.386Z,8.23
2023-05-19T03:28:56.626Z,8.18
2023-05-19T03:31:23.208Z,8.20
2023-05-19T03:33:49.754Z,8.17
2023-05-19T03:36:16.389Z,8.17
2023-05-19T03:38:43.148Z,8.22
2023-05-19T03:41:09.809Z,8.23
2023-05-19T03:43:36.326Z,8.21
2023-05-19T03:46:05.600Z,8.23
2023-05-19T03:48:58.324Z,8.18
2023-05-19T03:51:51.135Z,8.16
2023-05-19T03:54:28.190Z,8.16
2023-05-19T03:56:54.929Z,8.16
2023-05-19T03:59:23.592Z,8.10
2023-05-19T04:01:51.502Z,8.12
2023-05-19T04:04:18.241Z,8.18
2023-05-19T04:06:45.684Z,8.01
2023-05-19T04:09:14.210Z,8.16
2023-05-19T04:11:42.175Z,8.22
2023-05-19T04:14:09.035Z,8.24
2023-05-19T04:16:36.829Z,8.30
2023-05-19T04:19:03.664Z,8.28
2023-05-19T04:21:30.537Z,8.31
2023-05-19T04:23:59.111Z,8.32
2023-05-19T04:26:27.067Z,8.46
2023-05-19T04:28:56.603Z,8.44
2023-05-19T04:31:24.144Z,8.39
2023-05-19T04:33:50.803Z,8.45
2023-05-19T04:36:21.390Z,8.45
2023-05-19T04:38:49.886Z,8.44
2023-05-19T04:41:17.527Z,8.48
2023-05-19T04:43:44.662Z,8.48
2023-05-19T04:46:13.917Z,8.46
2023-05-19T04:48:42.792Z,8.42
2023-05-19T04:51:09.511Z,8.42
2023-05-19T04:53:36.573Z,8.57
2023-05-19T04:56:06.386Z,8.55
2023-05-19T04:58:33.307Z,8.58
2023-05-19T05:01:00.326Z,8.53
2023-05-19T05:03:27.954Z,8.65
2023-05-19T05:05:54.529Z,8.62
2023-05-19T05:08:23.757Z,8.71
2023-05-19T05:10:54.785Z,8.72
2023-05-19T05:13:23.167Z,8.84
2023-05-19T05:15:52.095Z,8.88
2023-05-19T05:18:19.070Z,8.88
2023-05-19T05:20:46.895Z,8.96
2023-05-19T05:23:14.623Z,8.91
2023-05-19T05:25:44.051Z,8.99
2023-05-19T05:28:11.397Z,9.02
2023-05-19T05:30:38.121Z,9.19
2023-05-19T05:33:06.884Z,9.14
2023-05-19T05:35:38.380Z,9.19
2023-05-19T05:38:06.744Z,9.22
2023-05-19T05:40:34.505Z,9.28
2023-05-19T05:43:02.569Z,9.26
2023-05-19T05:45:32.724Z,9.35
2023-05-19T05:48:01.193Z,9.44
2023-05-19T05:50:28.238Z,9.47
2023-05-19T05:52:55.990Z,9.67
2023-05-19T05:55:24.154Z,9.82
2023-05-19T05:57:51.723Z,9.80
2023-05-19T06:00:19.109Z,9.84
2023-05-19T06:02:51.880Z,9.78
2023-05-19T06:05:19.778Z,9.82
2023-05-19T06:07:47.886Z,9.91
2023-05-19T06:10:19.756Z,9.86
2023-05-19T06:12:48.121Z,9.96
2023-05-19T06:15:15.520Z,9.99
2023-05-19T06:17:54.711Z,10.03
2023-05-19T06:20:21.933Z,10.22
2023-05-19T06:22:48.544Z,10.12
2023-05-19T06:25:16.971Z,10.22
2023-05-19T06:27:44.112Z,10.10
2023-05-19T06:30:11.422Z,10.02
2023-05-19T06:32:48.551Z,10.07
2023-05-19T06:35:15.125Z,10.02
2023-05-19T06:37:41.800Z,10.12
2023-05-19T06:40:08.973Z,10.20
2023-05-19T06:42:37.012Z,10.34
2023-05-19T06:45:26.524Z,10.50
2023-05-19T06:47:55.562Z,10.60
2023-05-19T06:50:22.238Z,10.67
2023-05-19T06:52:49.616Z,10.69
2023-05-19T06:55:16.509Z,10.79
2023-05-19T06:57:43.423Z,10.89
2023-05-19T07:00:13.856Z,11.04
2023-05-19T07:02:43.626Z,10.92
2023-05-19T07:05:10.463Z,10.96
2023-05-19T07:07:37.101Z,10.90
2023-05-19T07:10:06.433Z,10.84
2023-05-19T07:12:33.703Z,10.75
2023-05-19T07:15:00.596Z,10.79
2023-05-19T07:17:28.123Z,10.83
2023-05-19T07:19:54.657Z,11.09
2023-05-19T07:22:22.199Z,11.06
2023-05-19T07:24:48.698Z,11.07
2023-05-19T07:27:17.048Z,11.07
2023-05-19T07:29:43.817Z,11.15
2023-05-19T07:32:10.400Z,11.43
2023-05-19T07:34:37.643Z,11.57
2023-05-19T07:37:04.295Z,11.49
2023-05-19T07:39:32.350Z,11.46
2023-05-19T07:41:59.363Z,11.47
2023-05-19T07:44:27.100Z,11.29
2023-05-19T07:46:54.834Z,11.23
2023-05-19T07:49:21.412Z,11.11
2023-05-19T07:51:48.102Z,11.00
2023-05-19T07:54:14.658Z,11.02
2023-05-19T07:56:41.382Z,11.09
2023-05-19T07:59:08.102Z,11.18
2023-05-19T08:01:34.841Z,11.32
2023-05-19T08:04:01.508Z,11.36
2023-05-19T08:06:30.076Z,11.23
2023-05-19T08:08:56.613Z,11.24
2023-05-19T08:11:23.213Z,11.22
2023-05-19T08:13:49.798Z,11.35
2023-05-19T08:16:16.527Z,11.33
2023-05-19T08:18:43.518Z,11.24
2023-05-19T08:21:10.087Z,11.29
2023-05-19T08:23:37.462Z,11.25
2023-05-19T08:26:04.336Z,11.17
2023-05-19T08:28:30.944Z,11.13
2023-05-19T08:30:57.542Z,11.15
2023-05-19T08:33:24.212Z,11.22
2023-05-19T08:35:51.048Z,11.13
2023-05-19T08:38:17.574Z,11.06
2023-05-19T08:40:47.269Z,11.03
2023-05-19T08:43:14.346Z,11.04
2023-05-19T08:45:46.695Z,11.06
2023-05-19T08:48:13.799Z,11.25
2023-05-19T08:50:42.686Z,11.21
2023-05-19T08:53:34.741Z,11.19
2023-05-19T08:56:16.575Z,11.21
2023-05-19T08:58:44.694Z,11.25
2023-05-19T09:01:14.602Z,11.34
2023-05-19T09:03:42.961Z,11.34
2023-05-19T09:06:12.485Z,11.32
2023-05-19T09:08:42.810Z,11.25
2023-05-19T09:11:10.259Z,11.27
2023-05-19T09:13:36.960Z,11.16
2023-05-19T09:16:03.823Z,11.07
2023-05-19T09:18:31.128Z,11.09
2023-05-19T09:21:00.219Z,11.10
2023-05-19T09:23:33.348Z,11.08
2023-05-19T09:26:08.152Z,11.11
2023-05-19T09:28:37.831Z,11.10
2023-05-19T09:31:09.403Z,11.24
2023-05-19T09:33:37.517Z,11.29
2023-05-19T09:36:11.545Z,11.34
2023-05-19T09:38:39.314Z,11.47
2023-05-19T09:41:07.679Z,11.53
2023-05-19T09:43:35.565Z,11.55
2023-05-19T09:46:13.616Z,11.66
2023-05-19T09:48:41.073Z,11.63
2023-05-19T09:51:10.675Z,11.56
2023-05-19T09:53:38.821Z,11.53
2023-05-19T09:56:05.932Z,11.49
2023-05-19T09:58:36.522Z,11.78
2023-05-19T10:01:04.514Z,11.74
2023-05-19T10:03:32.981Z,11.64
2023-05-19T10:06:01.310Z,11.79
2023-05-19T10:08:30.984Z,11.79
2023-05-19T10:10:58.005Z,11.72
2023-05-19T10:13:25.870Z,11.53
2023-05-19T10:15:58.618Z,11.60
2023-05-19T10:18:27.149Z,11.67
2023-05-19T10:20:54.329Z,11.65
2023-05-19T10:23:21.138Z,11.59
2023-05-19T10:25:49.265Z,11.49
2023-05-19T10:28:20.407Z,11.36
2023-05-19T10:30:50.885Z,11.32
2023-05-19T10:33:19.986Z,11.27
2023-05-19T10:35:58.529Z,11.25
2023-05-19T10:38:38.561Z,11.23
2023-05-19T10:41:12.913Z,11.23
2023-05-19T10:43:44.913Z,11.22
2023-05-19T10:46:12.379Z,11.22
2023-05-19T10:48:45.051Z,11.31
2023-05-19T10:51:12.346Z,11.34
2023-05-19T10:53:51.797Z,11.42
2023-05-19T10:56:34.957Z,11.54
2023-05-19T10:59:02.675Z,11.60
2023-05-19T11:01:37.218Z,11.66
2023-05-19T11:04:12.423Z,11.72
2023-05-19T11:06:40.738Z,11.79
2023-05-19T11:09:13.721Z,11.91
2023-05-19T11:12:03.770Z,12.00
2023-05-19T11:14:31.673Z,12.02
2023-05-19T11:16:59.754Z,11.96
2023-05-19T11:19:30.304Z,11.89
2023-05-19T11:21:58.567Z,11.79
2023-05-19T11:24:44.443Z,11.76
2023-05-19T11:27:40.488Z,11.77
2023-05-19T11:30:19.957Z,11.70
2023-05-19T11:32:48.391Z,11.76
2023-05-19T11:35:16.884Z,11.80
2023-05-19T11:37:43.681Z,11.93
2023-05-19T11:40:10.920Z,12.02
2023-05-19T11:42:37.621Z,12.05
2023-05-19T11:45:05.229Z,12.14
2023-05-19T11:47:50.853Z,12.11
2023-05-19T11:50:21.483Z,12.23
2023-05-19T11:52:48.189Z,12.18
2023-05-19T11:55:19.420Z,12.11
2023-05-19T11:58:02.896Z,12.16
2023-05-19T12:00:40.029Z,12.23
2023-05-19T12:03:08.121Z,12.16
2023-05-19T12:05:42.804Z,12.07
2023-05-19T12:08:11.436Z,11.93
2023-05-19T12:10:38.671Z,11.89
2023-05-19T12:13:09.020Z,11.86
2023-05-19T12:15:36.359Z,11.84
2023-05-19T12:18:03.119Z,11.86
2023-05-19T12:20:35.514Z,11.86
2023-05-19T12:23:03.461Z,11.84
2023-05-19T12:25:31.243Z,11.75
2023-05-19T12:27:59.919Z,11.77
2023-05-19T12:30:28.780Z,11.65
2023-05-19T12:32:57.774Z,11.62
2023-05-19T12:35:29.019Z,11.61
2023-05-19T12:37:55.837Z,11.75
2023-05-19T12:40:22.586Z,11.82
2023-05-19T12:42:53.259Z,11.81
2023-05-19T12:45:23.023Z,11.79
2023-05-19T12:47:50.241Z,11.76
2023-05-19T12:50:16.841Z,11.82
2023-05-19T12:52:48.307Z,11.78
2023-05-19T12:55:16.641Z,11.68
2023-05-19T12:57:58.903Z,11.75
2023-05-19T13:00:28.674Z,11.79
2023-05-19T13:03:04.987Z,11.84
2023-05-19T13:05:34.320Z,11.91
2023-05-19T13:08:02.247Z,11.95
2023-05-19T13:10:29.775Z,12.23
2023-05-19T13:12:57.540Z,12.42
2023-05-19T13:15:26.318Z,12.34
2023-05-19T13:17:53.956Z,12.42
2023-05-19T13:20:21.734Z,12.47
2023-05-19T13:22:48.603Z,12.52
2023-05-19T13:25:15.423Z,12.61
2023-05-19T13:27:42.580Z,12.59
2023-05-19T13:30:09.456Z,12.64
2023-05-19T13:32:36.047Z,12.65
2023-05-19T13:35:03.121Z,12.66
2023-05-19T13:37:30.183Z,12.72
2023-05-19T13:39:58.578Z,12.79
2023-05-19T13:42:25.144Z,12.91
2023-05-19T13:44:56.071Z,12.90
2023-05-19T13:47:24.002Z,12.97
2023-05-19T13:49:51.583Z,13.15
2023-05-19T13:52:18.834Z,13.12
2023-05-19T13:54:45.325Z,13.26
2023-05-19T13:57:12.362Z,13.34
2023-05-19T13:59:45.888Z,13.33
2023-05-19T14:02:19.813Z,13.27
2023-05-19T14:04:47.204Z,13.32
2023-05-19T14:07:13.762Z,13.45
2023-05-19T14:09:40.314Z,13.44
2023-05-19T14:12:07.242Z,13.52
2023-05-19T14:14:33.754Z,13.49
2023-05-19T14:17:00.393Z,13.56
2023-05-19T14:19:30.123Z,13.57
2023-05-19T14:21:57.417Z,13.55
2023-05-19T14:24:25.057Z,13.46
2023-05-19T14:26:52.618Z,13.58
2023-05-19T14:29:19.596Z,13.78
2023-05-19T14:31:46.362Z,13.63
2023-05-19T14:34:13.001Z,13.56
2023-05-19T14:36:39.505Z,13.55
2023-05-19T14:39:06.010Z,13.53
2023-05-19T14:41:32.517Z,13.55
2023-05-19T14:43:59.040Z,13.59
2023-05-19T14:46:25.584Z,13.73
2023-05-19T14:48:52.225Z,13.73
2023-05-19T14:51:18.723Z,13.63
2023-05-19T14:53:45.245Z,13.62
2023-05-19T14:56:11.784Z,13.69
2023-05-19T14:58:38.323Z,13.66
2023-05-19T15:01:05.027Z,13.74
2023-05-19T15:03:31.629Z,13.77
2023-05-19T15:05:58.275Z,13.71
2023-05-19T15:08:25.910Z,13.75
2023-05-19T15:10:55.363Z,13.79
2023-05-19T15:13:22.422Z,13.80
2023-05-19T15:18:21.375Z,13.79
2023-05-19T15:20:48.226Z,13.76
2023-05-19T15:23:14.810Z,13.84
2023-05-19T15:25:41.379Z,13.84
2023-05-19T15:28:08.316Z,13.80
2023-05-19T15:30:35.090Z,13.75
2023-05-19T15:33:01.794Z,13.75
2023-05-19T15:35:28.417Z,13.71
2023-05-19T15:37:55.026Z,13.73
2023-05-19T15:40:21.584Z,13.82
2023-05-19T15:42:48.078Z,13.84
2023-05-19T15:45:14.575Z,13.95
2023-05-19T15:47:41.125Z,13.99
2023-05-19T15:50:08.363Z,13.88
2023-05-19T15:52:34.901Z,13.88
2023-05-19T15:55:01.455Z,13.84
2023-05-19T15:57:28.076Z,13.88
2023-05-19T15:59:54.657Z,14.03
2023-05-19T16:02:21.438Z,14.07
2023-05-19T16:04:48.091Z,14.24
2023-05-19T16:07:16.684Z,14.32
2023-05-19T16:09:44.133Z,14.43
2023-05-19T16:12:10.957Z,14.50
2023-05-19T16:14:37.817Z,14.50
2023-05-19T16:17:05.018Z,14.52
2023-05-19T16:19:31.626Z,14.51
2023-05-19T16:21:58.332Z,14.43
2023-05-19T16:24:24.902Z,14.46
2023-05-19T16:26:53.577Z,14.43
2023-05-19T16:29:20.215Z,14.50
2023-05-19T16:31:46.782Z,14.47
2023-05-19T16:34:13.434Z,14.56
2023-05-19T16:36:39.941Z,14.45
2023-05-19T16:39:06.902Z,14.43
2023-05-19T16:41:33.874Z,14.45
2023-05-19T16:44:02.504Z,14.45
2023-05-19T16:46:31.512Z,14.46
2023-05-19T16:48:58.753Z,14.41
2023-05-19T16:51:25.834Z,14.37
2023-05-19T16:53:52.612Z,14.38
2023-05-19T16:56:19.604Z,14.41
2023-05-19T16:58:46.518Z,14.40
2023-05-19T17:01:13.604Z,14.37
2023-05-19T17:03:40.803Z,14.34
2023-05-19T17:06:07.870Z,14.33
2023-05-19T17:08:35.357Z,14.33
2023-05-19T17:11:02.480Z,14.31
2023-05-19T17:13:33.787Z,14.30
2023-05-19T17:16:00.805Z,14.26
2023-05-19T17:18:28.341Z,14.27
2023-05-19T17:20:55.316Z,14.28
2023-05-19T17:23:22.706Z,14.14
2023-05-19T17:25:53.654Z,14.23
2023-05-19T17:28:21.022Z,14.21
2023-05-19T17:30:47.986Z,14.19
2023-05-19T17:33:15.653Z,14.19
2023-05-19T17:35:42.660Z,14.17
2023-05-19T17:38:09.848Z,14.18
2023-05-19T17:40:37.517Z,14.14
2023-05-19T17:43:06.136Z,14.14
2023-05-19T17:45:32.699Z,14.11
2023-05-19T17:47:59.370Z,14.08
2023-05-19T17:50:25.977Z,14.06
2023-05-19T17:52:52.908Z,14.04
2023-05-19T17:55:20.049Z,14.04
2023-05-19T17:57:48.093Z,14.04
2023-05-19T18:00:15.186Z,14.03
2023-05-19T18:02:42.252Z,14.00
2023-05-19T18:05:09.677Z,13.97
2023-05-19T18:07:41.176Z,13.93
2023-05-19T18:10:08.921Z,13.94
2023-05-19T18:12:35.715Z,13.92
2023-05-19T18:15:02.379Z,13.90
2023-05-19T18:17:30.369Z,13.87
2023-05-19T18:19:58.758Z,13.88
2023-05-19T18:22:25.394Z,13.86
2023-05-19T18:24:52.128Z,13.87
2023-05-19T18:27:19.556Z,13.87
2023-05-19T18:29:46.105Z,13.84
2023-05-19T18:32:14.469Z,13.80
2023-05-19T18:34:41.197Z,13.79
2023-05-19T18:37:07.708Z,13.73
2023-05-19T18:39:34.291Z,13.72
2023-05-19T18:42:01.879Z,13.70
2023-05-19T18:44:29.418Z,13.69
2023-05-19T18:46:56.540Z,13.63
2023-05-19T18:49:25.238Z,13.64
2023-05-19T18:51:52.583Z,13.63
2023-05-19T18:54:21.767Z,13.61
2023-05-19T18:56:48.637Z,13.60
2023-05-19T18:59:15.363Z,13.55
2023-05-19T19:01:43.000Z,13.58
2023-05-19T19:04:12.304Z,13.55
2023-05-19T19:06:41.916Z,13.57
2023-05-19T19:09:09.856Z,13.56
2023-05-19T19:11:36.820Z,13.56
2023-05-19T19:14:03.584Z,13.55
2023-05-19T19:16:30.754Z,13.53
2023-05-19T19:18:57.743Z,13.52
2023-05-19T19:21:24.935Z,13.48
2023-05-19T19:23:55.019Z,13.47
2023-05-19T19:26:27.198Z,13.48
2023-05-19T19:28:54.400Z,13.45
2023-05-19T19:31:21.800Z,13.43
2023-05-19T19:33:49.278Z,13.42
2023-05-19T19:36:17.185Z,13.38
2023-05-19T19:38:44.355Z,13.38
2023-05-19T19:41:11.535Z,13.36
2023-05-19T19:43:38.585Z,13.37
2023-05-19T19:46:07.176Z,13.36
2023-05-19T19:48:34.087Z,13.38
2023-05-19T19:51:03.709Z,13.34
2023-05-19T19:53:30.791Z,13.37
2023-05-19T19:56:03.027Z,13.36
2023-05-19T19:58:30.477Z,13.34
2023-05-19T20:01:02.706Z,13.34
2023-05-19T20:03:30.411Z,13.32
2023-05-19T20:05:57.305Z,13.32
2023-05-19T20:08:25.546Z,13.29
2023-05-19T20:10:52.785Z,13.28
2023-05-19T20:13:20.415Z,13.29
2023-05-19T20:15:48.715Z,13.22
2023-05-19T20:18:15.978Z,13.28
2023-05-19T20:20:43.120Z,13.18
2023-05-19T20:23:10.359Z,13.25
2023-05-19T20:26:02.502Z,13.25
2023-05-19T20:28:31.645Z,13.20
2023-05-19T20:30:58.604Z,13.25
2023-05-19T20:33:27.285Z,13.29
2023-05-19T20:35:55.532Z,13.27
2023-05-19T20:38:23.088Z,13.30
2023-05-19T20:40:50.084Z,13.30
2023-05-19T20:43:17.234Z,13.37
2023-05-19T20:45:45.801Z,13.26
2023-05-19T20:48:12.980Z,13.32
2023-05-19T20:50:42.115Z,13.31
2023-05-19T20:53:09.199Z,13.34
2023-05-19T20:55:38.381Z,13.33
2023-05-19T20:58:04.996Z,13.39
2023-05-19T21:00:31.883Z,13.44
2023-05-19T21:02:58.737Z,13.52
2023-05-19T21:05:25.543Z,13.57
2023-05-19T21:07:52.106Z,13.56
2023-05-19T21:10:18.633Z,13.57
2023-05-19T21:12:46.278Z,13.65
2023-05-19T21:15:13.133Z,13.59
2023-05-19T21:17:39.854Z,13.60
2023-05-19T21:20:06.957Z,13.59
2023-05-19T21:22:35.596Z,13.55
2023-05-19T21:25:02.255Z,13.57
2023-05-19T21:27:29.080Z,13.60
2023-05-19T21:29:55.621Z,13.56
2023-05-19T21:32:22.284Z,13.59
2023-05-19T21:34:48.867Z,13.56
2023-05-19T21:37:17.294Z,13.49
2023-05-19T21:39:44.248Z,13.60
2023-05-19T21:42:10.827Z,13.51
2023-05-19T21:44:37.415Z,13.64
2023-05-19T21:47:04.047Z,13.57
2023-05-19T21:49:31.193Z,13.55
2023-05-19T21:51:57.921Z,13.57
2023-05-19T21:54:24.502Z,13.56
2023-05-19T21:56:51.143Z,13.49
2023-05-19T21:59:17.710Z,13.50
2023-05-19T22:01:44.569Z,13.49
2023-05-19T22:04:11.546Z,13.45
2023-05-19T22:06:38.185Z,13.44
2023-05-19T22:09:04.728Z,13.52
2023-05-19T22:11:31.397Z,13.50
2023-05-19T22:13:58.019Z,13.44
2023-05-19T22:16:24.811Z,13.44
2023-05-19T22:18:51.640Z,13.42
2023-05-19T22:21:18.425Z,13.39
2023-05-19T22:23:44.965Z,13.37
2023-05-19T22:26:11.530Z,13.41
2023-05-19T22:28:38.036Z,13.34
2023-05-19T22:31:04.774Z,13.31
2023-05-19T22:33:31.333Z,13.24
2023-05-19T22:35:57.925Z,13.20
2023-05-19T22:38:24.478Z,13.18
2023-05-19T22:40:51.062Z,13.23
2023-05-19T22:43:17.676Z,13.12
2023-05-19T22:45:44.433Z,13.06
2023-05-19T22:48:11.508Z,13.07
2023-05-19T22:50:38.196Z,12.96
2023-05-19T22:53:04.870Z,12.86
2023-05-19T22:55:31.718Z,12.92
2023-05-19T22:57:58.469Z,12.87
2023-05-19T23:00:24.986Z,12.83
2023-05-19T23:02:51.586Z,12.82
2023-05-19T23:05:18.154Z,12.82
2023-05-19T23:07:44.694Z,12.87
2023-05-19T23:10:11.437Z,12.83
2023-05-19T23:12:38.043Z,12.75
2023-05-19T23:15:05.036Z,12.71
2023-05-19T23:17:31.910Z,12.69
2023-05-19T23:19:58.620Z,12.59
2023-05-19T23:22:25.239Z,12.54
2023-05-19T23:24:51.731Z,12.55
2023-05-19T23:27:18.277Z,12.47
2023-05-19T23:29:49.055Z,12.52
2023-05-19T23:32:15.996Z,12.45
2023-05-19T23:34:42.616Z,12.38
2023-05-19T23:37:09.222Z,12.34
2023-05-19T23:39:38.444Z,12.40
2023-05-19T23:42:05.737Z,12.27
2023-05-19T23:44:32.340Z,12.36
2023-05-19T23:46:59.013Z,12.25
2023-05-19T23:49:25.726Z,12.23
2023-05-19T23:51:52.470Z,12.23
2023-05-19T23:54:19.034Z,12.24
2023-05-19T23:56:45.595Z,12.29
2023-05-19T23:59:12.191Z,12.07
